Time;durP1;ratioP1;P1;durP2;ratioP2;P2;SDS_P1;SDS_P2;PMS_P1;PMS_P2;Temp;Humidity;BMP_temperature;BMP_pressure;BME280_temperature;BME280_humidity;BME280_pressure;Samples;Min_cycle;Max_cycle;Signal;HPM_P1;HPM_P2
2022/01/16 00:06:13;;;;;;;10.10;6.50;;;20.20;50.90;;;;;;5031354;28;20046;-60
2022/01/16 00:08:39;;;;;;;9.73;7.05;;;20.20;50.80;;;;;;5032611;28;20041;-61
2022/01/16 00:11:04;;;;;;;11.70;7.10;;;20.10;50.70;;;;;;5032516;28;20037;-60
2022/01/16 00:13:30;;;;;;;11.45;7.53;;;20.10;50.70;;;;;;5031322;28;20048;-61
2022/01/16 00:15:55;;;;;;;11.43;7.53;;;20.10;50.60;;;;;;5032345;28;20053;-61
2022/01/16 00:18:24;;;;;;;11.40;7.38;;;20.10;50.60;;;;;;5032137;28;20041;-61
2022/01/16 00:20:50;;;;;;;11.55;7.82;;;20.10;50.50;;;;;;5031503;28;20488;-61
2022/01/16 00:23:24;;;;;;;12.43;8.60;;;20.10;50.50;;;;;;5031991;28;20038;-61
2022/01/16 00:25:55;;;;;;;12.63;8.18;;;20.00;50.40;;;;;;5032485;28;20049;-61
2022/01/16 00:28:20;;;;;;;12.43;8.68;;;20.10;50.40;;;;;;5031112;28;20477;-60
2022/01/16 00:30:46;;;;;;;12.00;8.57;;;20.00;50.30;;;;;;5032220;28;20110;-61
2022/01/16 00:33:12;;;;;;;13.32;8.60;;;20.00;50.30;;;;;;5031609;28;20449;-61
2022/01/16 00:35:37;;;;;;;11.73;8.52;;;20.00;50.20;;;;;;5031442;28;20508;-61
2022/01/16 00:38:04;;;;;;;12.40;9.50;;;20.00;50.30;;;;;;5014343;28;20087;-61
2022/01/16 00:40:29;;;;;;;14.90;9.93;;;20.00;50.20;;;;;;5031824;28;20056;-60
2022/01/16 00:42:57;;;;;;;15.25;9.65;;;20.00;50.20;;;;;;5031496;28;20038;-61
2022/01/16 00:45:23;;;;;;;15.63;9.68;;;20.00;50.10;;;;;;5031963;28;20045;-60
2022/01/16 00:47:48;;;;;;;13.68;9.55;;;20.00;50.10;;;;;;5031584;28;20041;-60
2022/01/16 00:50:14;;;;;;;15.40;9.60;;;20.00;50.10;;;;;;5031673;28;20037;-61
2022/01/16 00:52:39;;;;;;;16.80;10.70;;;19.90;50.00;;;;;;5032110;28;20111;-60
2022/01/16 00:55:05;;;;;;;16.02;10.43;;;19.90;49.90;;;;;;5031519;28;20045;-60
2022/01/16 00:57:31;;;;;;;16.88;11.43;;;19.90;49.90;;;;;;5033900;28;20646;-61
2022/01/16 00:59:56;;;;;;;16.33;10.95;;;19.90;49.80;;;;;;5035385;28;20527;-60
2022/01/16 01:02:23;;;;;;;15.30;10.85;;;19.90;49.80;;;;;;5034420;28;20048;-61
2022/01/16 01:04:49;;;;;;;15.65;11.07;;;19.90;49.80;;;;;;5035773;28;20132;-61
2022/01/16 01:07:14;;;;;;;18.45;11.80;;;19.90;49.70;;;;;;5034985;28;20405;-61
2022/01/16 01:09:40;;;;;;;16.05;11.50;;;19.80;49.70;;;;;;5034815;28;20038;-60
2022/01/16 01:12:06;;;;;;;17.45;11.65;;;19.80;49.70;;;;;;5035727;28;20520;-61
2022/01/16 01:14:41;;;;;;;16.98;11.57;;;19.80;49.60;;;;;;5035202;28;20042;-60
2022/01/16 01:17:09;;;;;;;17.45;11.07;;;19.80;49.60;;;;;;5034295;28;20058;-60
2022/01/16 01:19:35;;;;;;;17.65;11.68;;;19.80;49.60;;;;;;5034699;28;20084;-61
2022/01/16 01:22:02;;;;;;;17.20;11.75;;;19.80;49.60;;;;;;5035345;28;20050;-60
2022/01/16 01:24:29;;;;;;;17.45;11.82;;;19.80;49.60;;;;;;5034107;28;20045;-61
2022/01/16 01:27:08;;;;;;;16.45;10.73;;;19.80;49.60;;;;;;5035383;28;20052;-60
2022/01/16 01:29:34;;;;;;;16.27;11.50;;;19.70;49.40;;;;;;5034789;28;20111;-60
2022/01/16 01:32:01;;;;;;;19.27;13.18;;;19.70;49.40;;;;;;5034394;28;20088;-60
2022/01/16 01:34:26;;;;;;;16.25;10.95;;;19.70;49.30;;;;;;5034513;28;20056;-61
2022/01/16 01:36:52;;;;;;;17.90;11.90;;;19.70;49.30;;;;;;5034835;28;20037;-61
2022/01/16 01:39:19;;;;;;;18.10;11.73;;;19.70;49.30;;;;;;5034000;28;20041;-61
2022/01/16 01:41:44;;;;;;;17.55;12.45;;;19.70;49.20;;;;;;5034802;28;20048;-60
2022/01/16 01:52:22;;;;;;;18.30;12.40;;;19.60;49.10;;;;;;5033838;28;20128;-60
2022/01/16 01:54:48;;;;;;;19.50;11.65;;;19.60;49.10;;;;;;5017100;28;20132;-60
2022/01/16 01:57:13;;;;;;;17.85;12.00;;;19.60;49.10;;;;;;5016657;28;20133;-60
2022/01/16 01:59:39;;;;;;;18.10;11.95;;;19.60;49.00;;;;;;5015871;28;20140;-60
2022/01/16 02:02:06;;;;;;;17.13;11.73;;;19.60;49.10;;;;;;5034526;28;20440;-60
2022/01/16 02:04:31;;;;;;;17.55;11.82;;;19.50;48.90;;;;;;5033964;28;20572;-61
2022/01/16 02:06:57;;;;;;;17.90;12.00;;;19.50;48.90;;;;;;5033512;28;20153;-60
2022/01/16 02:09:23;;;;;;;17.55;12.23;;;19.50;48.90;;;;;;5033563;28;20048;-60
2022/01/16 02:11:48;;;;;;;16.75;11.43;;;19.50;48.80;;;;;;5016388;28;20103;-60
2022/01/16 02:14:27;;;;;;;17.95;12.65;;;19.50;48.90;;;;;;5015632;28;20050;-60
2022/01/16 02:33:22;;;;;;;15.80;11.65;;;19.40;48.80;;;;;;5033980;28;20049;-60
2022/01/16 02:35:49;;;;;;;16.70;11.70;;;19.40;48.80;;;;;;5017806;28;20037;-60
2022/01/16 02:38:15;;;;;;;19.63;12.93;;;19.40;48.80;;;;;;5033589;28;20045;-60
2022/01/16 02:40:47;;;;;;;18.77;12.70;;;19.40;48.80;;;;;;5032747;28;20050;-60
2022/01/16 02:43:15;;;;;;;17.10;11.70;;;19.40;48.90;;;;;;5015881;28;20111;-60
2022/01/16 02:45:46;;;;;;;17.20;11.65;;;19.40;48.90;;;;;;5033505;28;20404;-60
2022/01/16 02:48:11;;;;;;;17.42;12.10;;;19.40;48.80;;;;;;5032934;28;20042;-60
2022/01/16 02:50:37;;;;;;;18.23;12.20;;;19.40;48.70;;;;;;5033221;28;20056;-60
2022/01/16 02:53:08;;;;;;;17.00;11.68;;;19.40;48.60;;;;;;5033573;28;20042;-61
2022/01/16 02:55:33;;;;;;;20.70;12.65;;;19.40;48.50;;;;;;5032493;28;20052;-60
2022/01/16 02:57:59;;;;;;;17.55;11.70;;;19.40;48.50;;;;;;5015449;28;20120;-61
2022/01/16 03:00:24;;;;;;;15.27;11.55;;;19.40;48.40;;;;;;5030518;28;20119;-60
2022/01/16 03:02:50;;;;;;;17.38;11.93;;;19.40;48.50;;;;;;5013134;28;20046;-60
2022/01/16 03:05:16;;;;;;;16.27;11.68;;;19.40;48.50;;;;;;5012737;28;20046;-60
2022/01/16 03:07:43;;;;;;;17.73;11.80;;;19.50;48.60;;;;;;5013383;28;20056;-60
2022/01/16 03:12:42;;;;;;;17.10;11.30;;;19.50;48.50;;;;;;5013644;28;20046;-60
2022/01/16 03:15:07;;;;;;;15.98;10.95;;;19.50;48.50;;;;;;5013609;28;20050;-60
2022/01/16 03:17:51;;;;;;;16.77;11.68;;;19.40;48.50;;;;;;5011684;28;20081;-60
2022/01/16 03:23:00;;;;;;;13.73;10.38;;;19.50;48.60;;;;;;5012590;28;20128;-60
2022/01/16 03:25:26;;;;;;;16.17;10.65;;;19.50;48.60;;;;;;5012689;28;20461;-60
2022/01/16 03:27:51;;;;;;;16.63;10.95;;;19.50;48.50;;;;;;5013192;28;20046;-60
2022/01/16 03:30:17;;;;;;;16.73;11.80;;;19.50;48.50;;;;;;5012395;28;20053;-60
2022/01/16 03:32:43;;;;;;;15.13;10.65;;;19.50;48.50;;;;;;5013372;28;20104;-60
2022/01/16 03:35:08;;;;;;;14.30;10.07;;;19.50;48.50;;;;;;5013149;28;20038;-60
2022/01/16 03:37:34;;;;;;;15.82;10.95;;;19.50;48.50;;;;;;5012098;28;20048;-60
2022/01/16 03:40:00;;;;;;;17.25;11.43;;;19.60;48.60;;;;;;4995310;28;20100;-60
2022/01/16 03:42:29;;;;;;;16.25;11.05;;;19.60;48.50;;;;;;5012892;28;20049;-60
2022/01/16 03:44:55;;;;;;;16.90;11.02;;;19.60;48.50;;;;;;5012175;28;20493;-61
2022/01/16 03:47:20;;;;;;;15.70;10.93;;;19.60;48.50;;;;;;5012705;28;20096;-60
2022/01/16 03:49:45;;;;;;;15.43;10.57;;;19.60;48.60;;;;;;5012881;28;20104;-60
2022/01/16 03:52:11;;;;;;;15.15;10.40;;;19.60;48.50;;;;;;5012262;28;20042;-60
2022/01/16 03:54:37;;;;;;;15.85;11.00;;;19.60;48.50;;;;;;5012948;28;20049;-60
2022/01/16 03:57:02;;;;;;;15.18;11.07;;;19.60;48.50;;;;;;5013057;28;20038;-60
2022/01/16 03:59:28;;;;;;;15.98;10.82;;;19.70;48.50;;;;;;5011534;28;20049;-60
2022/01/16 04:01:53;;;;;;;15.98;10.00;;;19.70;48.50;;;;;;5012915;28;20046;-60
2022/01/16 04:04:19;;;;;;;15.23;10.80;;;19.70;48.50;;;;;;5012085;28;20050;-60
2022/01/16 04:06:45;;;;;;;13.68;9.25;;;19.70;48.60;;;;;;5012128;28;20049;-60
2022/01/16 04:09:10;;;;;;;16.10;10.90;;;19.70;48.50;;;;;;5012792;28;20049;-60
2022/01/16 04:11:43;;;;;;;14.35;9.98;;;19.70;48.50;;;;;;5012623;28;20050;-60
2022/01/16 04:14:15;;;;;;;16.75;10.82;;;19.70;48.60;;;;;;5012249;28;20045;-60
2022/01/16 04:16:40;;;;;;;14.80;10.52;;;19.70;48.60;;;;;;5012862;28;20609;-60
2022/01/16 04:19:06;;;;;;;15.63;10.35;;;19.80;48.60;;;;;;5011797;28;20169;-60
2022/01/16 04:21:31;;;;;;;14.60;10.00;;;19.80;48.60;;;;;;5011620;28;20046;-60
2022/01/16 04:23:57;;;;;;;14.68;10.25;;;19.80;48.60;;;;;;5012233;28;20050;-60
2022/01/16 04:26:25;;;;;;;14.18;9.90;;;19.70;48.50;;;;;;5011646;28;20048;-60
2022/01/16 04:28:51;;;;;;;;;;;19.80;48.60;;;;;;5013075;28;20049;-60
2022/01/16 04:31:16;;;;;;;18.35;10.63;;;19.80;48.70;;;;;;5012042;28;19926;-60
2022/01/16 04:33:42;;;;;;;15.65;10.23;;;19.80;48.60;;;;;;5015739;28;20061;-60
2022/01/16 04:36:08;;;;;;;15.38;10.70;;;19.80;48.60;;;;;;5016465;28;20133;-60
2022/01/16 04:38:34;;;;;;;17.33;10.70;;;19.80;48.60;;;;;;5016185;28;20113;-60
2022/01/16 04:43:47;;;;;;;14.48;10.20;;;19.80;48.60;;;;;;5016037;28;20141;-60
2022/01/16 04:46:24;;;;;;;15.85;10.32;;;19.80;48.60;;;;;;5015949;28;20057;-60
2022/01/16 04:48:50;;;;;;;14.18;9.63;;;19.80;48.60;;;;;;5015286;28;20412;-60
2022/01/16 04:51:16;;;;;;;15.45;11.05;;;19.80;48.60;;;;;;5015460;28;20037;-60
2022/01/16 04:53:42;;;;;;;14.82;9.80;;;19.80;48.60;;;;;;5016274;28;20046;-60
2022/01/16 04:56:07;;;;;;;14.63;10.13;;;19.80;48.60;;;;;;5015287;28;20128;-60
2022/01/16 04:58:33;;;;;;;13.95;9.32;;;19.90;49.30;;;;;;5015214;28;20486;-60
2022/01/16 05:00:59;;;;;;;15.82;10.18;;;19.90;48.60;;;;;;5018984;28;20558;-60
2022/01/16 05:03:25;;;;;;;14.85;9.98;;;19.90;48.60;;;;;;5018399;28;20054;-60
2022/01/16 05:05:51;;;;;;;13.35;9.93;;;19.90;48.70;;;;;;5015376;28;20049;-60
2022/01/16 05:08:16;;;;;;;15.52;10.15;;;19.90;48.60;;;;;;5014503;28;20042;-60
2022/01/16 05:10:42;;;;;;;14.05;9.30;;;19.90;48.60;;;;;;5015894;28;20125;-59
2022/01/16 05:18:39;;;;;;;15.73;10.35;;;19.90;48.60;;;;;;5015767;28;20137;-60
2022/01/16 05:21:04;;;;;;;15.80;10.27;;;19.90;48.60;;;;;;5015441;28;20089;-60
2022/01/16 05:23:30;;;;;;;14.82;9.90;;;19.90;48.60;;;;;;5014535;28;20078;-60
2022/01/16 05:25:56;;;;;;;14.60;10.00;;;19.90;48.60;;;;;;5015725;28;20088;-60
2022/01/16 05:28:21;;;;;;;14.68;9.80;;;20.00;48.70;;;;;;5014918;28;20060;-60
2022/01/16 05:30:47;;;;;;;15.18;9.98;;;20.00;48.60;;;;;;5014561;28;20049;-60
2022/01/16 05:33:12;;;;;;;17.02;9.75;;;19.90;48.60;;;;;;5015201;28;20034;-60
2022/01/16 05:35:38;;;;;;;14.23;9.60;;;19.90;48.60;;;;;;5015048;28;20426;-60
2022/01/16 05:38:03;;;;;;;15.23;9.90;;;19.90;48.50;;;;;;5014514;28;20049;-60
2022/01/16 05:40:29;;;;;;;16.92;10.50;;;20.00;48.60;;;;;;5014681;28;20046;-60
2022/01/16 05:42:55;;;;;;;14.48;9.35;;;19.90;48.50;;;;;;5014872;28;20042;-60
2022/01/16 05:45:21;;;;;;;14.60;9.10;;;20.00;49.30;;;;;;5014255;28;20104;-60
2022/01/16 05:47:46;;;;;;;16.20;10.25;;;20.00;48.60;;;;;;5015102;28;20500;-60
2022/01/16 05:50:13;;;;;;;16.35;10.55;;;20.00;48.60;;;;;;5014873;28;20074;-60
2022/01/16 05:52:39;;;;;;;14.02;9.48;;;20.00;48.60;;;;;;5014775;28;20520;-60
2022/01/16 05:55:05;;;;;;;13.60;9.13;;;20.00;48.60;;;;;;5015141;28;20081;-60
2022/01/16 05:57:30;;;;;;;14.65;9.57;;;20.00;48.60;;;;;;5013925;28;20038;-60
2022/01/16 05:59:56;;;;;;;14.82;9.15;;;20.00;48.50;;;;;;5014499;28;20107;-60
2022/01/16 06:02:21;;;;;;;13.63;9.20;;;20.00;48.60;;;;;;5014475;28;20057;-60
2022/01/16 06:04:47;;;;;;;13.60;9.20;;;20.00;48.60;;;;;;5014197;28;20046;-60
2022/01/16 06:07:12;;;;;;;14.85;10.13;;;20.00;48.60;;;;;;5014124;28;20452;-60
2022/01/16 06:09:38;;;;;;;13.60;9.27;;;20.00;48.50;;;;;;5014499;28;20553;-60
2022/01/16 06:12:04;;;;;;;14.75;9.73;;;20.10;48.60;;;;;;5013977;28;20052;-60
2022/01/16 06:14:30;;;;;;;15.27;9.52;;;20.10;48.60;;;;;;5014063;28;20117;-60
2022/01/16 06:16:56;;;;;;;14.50;9.55;;;20.00;48.50;;;;;;5014613;28;20132;-60
2022/01/16 06:19:21;;;;;;;15.45;9.45;;;20.00;48.50;;;;;;5013719;28;20042;-60
2022/01/16 06:21:47;;;;;;;14.27;9.13;;;20.00;48.50;;;;;;5014098;28;20042;-60
2022/01/16 06:24:12;;;;;;;13.05;9.20;;;20.10;48.50;;;;;;5013890;28;20046;-60
2022/01/16 06:26:38;;;;;;;14.75;9.55;;;20.00;48.50;;;;;;5013703;28;20034;-60
2022/01/16 06:29:03;;;;;;;14.57;9.02;;;20.10;48.50;;;;;;5014170;28;20480;-60
2022/01/16 06:31:29;;;;;;;16.30;9.95;;;20.10;48.50;;;;;;5013874;28;20050;-60
2022/01/16 06:33:55;;;;;;;16.42;10.30;;;20.10;48.50;;;;;;5013730;28;20504;-60
2022/01/16 06:36:20;;;;;;;14.77;8.95;;;20.10;48.50;;;;;;5013886;28;20125;-60
2022/01/16 06:38:46;;;;;;;16.10;10.20;;;20.10;48.50;;;;;;5014240;28;20486;-60
2022/01/16 06:41:12;;;;;;;15.10;9.88;;;20.10;48.50;;;;;;5013082;28;20069;-60
2022/01/16 06:43:38;;;;;;;14.60;10.10;;;20.10;48.40;;;;;;5013735;28;20042;-60
2022/01/16 06:46:03;;;;;;;14.85;9.90;;;20.10;48.40;;;;;;5013931;28;20046;-60
2022/01/16 06:48:30;;;;;;;13.68;9.52;;;20.10;48.30;;;;;;5012991;28;20096;-60
2022/01/16 06:50:55;;;;;;;15.27;9.48;;;20.20;48.40;;;;;;5013736;28;20052;-60
2022/01/16 06:53:21;;;;;;;12.82;9.23;;;20.20;48.40;;;;;;5013691;28;20132;-60
2022/01/16 06:55:46;;;;;;;16.60;10.23;;;20.20;48.40;;;;;;5012445;28;20195;-60
2022/01/16 06:58:12;;;;;;;13.82;9.05;;;20.10;48.40;;;;;;5013335;28;20085;-60
2022/01/16 07:00:37;;;;;;;13.85;9.25;;;20.20;48.40;;;;;;5013121;28;20192;-60
2022/01/16 07:03:03;;;;;;;12.25;8.32;;;20.20;48.50;;;;;;5013866;28;20042;-60
2022/01/16 07:05:28;;;;;;;14.13;9.27;;;20.10;48.40;;;;;;5013303;28;20057;-60
2022/01/16 07:07:54;;;;;;;13.38;8.88;;;20.10;48.30;;;;;;5012765;28;20139;-60
2022/01/16 07:10:20;;;;;;;13.95;8.95;;;20.10;48.30;;;;;;5013306;28;20052;-60
2022/01/16 07:12:45;;;;;;;13.77;9.20;;;20.20;48.40;;;;;;5013173;28;20509;-60
2022/01/16 07:15:11;;;;;;;14.43;9.30;;;20.10;48.30;;;;;;5012935;28;20048;-60
2022/01/16 07:17:37;;;;;;;13.77;9.07;;;20.20;48.40;;;;;;5020453;28;20029;-60
2022/01/16 07:20:02;;;;;;;15.57;10.20;;;20.20;48.40;;;;;;5033217;28;20049;-60
2022/01/16 07:22:28;;;;;;;14.77;9.70;;;20.10;48.40;;;;;;5032243;28;20045;-60
2022/01/16 07:24:54;;;;;;;13.52;9.20;;;20.20;48.40;;;;;;5033023;28;20405;-60
2022/01/16 07:27:19;;;;;;;13.55;9.30;;;20.20;48.50;;;;;;5032369;28;20053;-60
2022/01/16 07:29:45;;;;;;;13.63;9.15;;;20.20;48.50;;;;;;5032127;28;20087;-60
2022/01/16 07:32:10;;;;;;;14.60;9.40;;;20.20;48.40;;;;;;5033054;28;20452;-60
2022/01/16 07:34:36;;;;;;;14.30;9.13;;;20.20;48.40;;;;;;5032182;28;20061;-61
2022/01/16 07:37:01;;;;;;;16.08;9.38;;;20.20;48.40;;;;;;5032233;28;20104;-60
2022/01/16 07:39:27;;;;;;;14.70;9.48;;;20.20;48.40;;;;;;5032248;28;20099;-60
2022/01/16 07:41:52;;;;;;;13.60;8.82;;;20.20;48.40;;;;;;5032757;28;20041;-60
2022/01/16 07:44:18;;;;;;;15.07;9.02;;;20.20;48.40;;;;;;5031824;28;20448;-60
2022/01/16 07:46:43;;;;;;;15.88;9.55;;;20.30;48.50;;;;;;5032548;28;20045;-60
2022/01/16 07:49:09;;;;;;;15.93;9.57;;;20.20;48.40;;;;;;5032575;28;20041;-60
2022/01/16 07:51:34;;;;;;;14.77;9.30;;;20.20;48.50;;;;;;5031366;28;20052;-60
2022/01/16 07:54:00;;;;;;;17.27;9.95;;;20.20;48.50;;;;;;5032798;28;20084;-60
2022/01/16 07:56:25;;;;;;;14.23;9.13;;;20.20;48.50;;;;;;5032201;28;20559;-60
2022/01/16 07:58:51;;;;;;;16.77;9.23;;;20.20;48.70;;;;;;5031729;28;20057;-60
2022/01/16 08:01:17;;;;;;;17.90;9.65;;;20.20;48.90;;;;;;5032192;28;20053;-59
2022/01/16 08:03:42;;;;;;;13.85;8.93;;;20.30;49.10;;;;;;5032587;28;20389;-60
2022/01/16 08:06:10;;;;;;;13.82;8.73;;;20.20;49.10;;;;;;5016718;28;20132;-60
2022/01/16 08:08:36;;;;;;;14.93;9.13;;;20.30;49.30;;;;;;5038956;28;20160;-60
2022/01/16 08:11:02;;;;;;;15.00;9.15;;;20.30;49.40;;;;;;5038339;28;20041;-60
2022/01/16 08:13:27;;;;;;;14.27;9.70;;;20.30;49.40;;;;;;5038589;28;20068;-60
2022/01/16 08:15:53;;;;;;;14.68;8.75;;;20.30;49.50;;;;;;5039213;28;20045;-60
2022/01/16 08:18:18;;;;;;;16.13;9.25;;;20.30;49.60;;;;;;5037896;28;20136;-60
2022/01/16 08:20:44;;;;;;;15.07;9.77;;;20.30;49.50;;;;;;5036618;28;20132;-60
2022/01/16 08:23:10;;;;;;;15.98;9.18;;;20.30;49.60;;;;;;5028512;28;20088;-61
2022/01/16 08:25:35;;;;;;;17.13;8.25;;;20.30;49.70;;;;;;5026568;28;20045;-60
2022/01/16 08:28:01;;;;;;;14.60;9.25;;;20.30;49.70;;;;;;5029789;28;20116;-60
2022/01/16 08:30:26;;;;;;;15.90;9.23;;;20.30;49.80;;;;;;5027941;28;20449;-60
2022/01/16 08:32:52;;;;;;;13.48;8.95;;;20.30;49.80;;;;;;5023880;28;20040;-60
2022/01/16 08:35:18;;;;;;;13.18;8.65;;;20.30;49.90;;;;;;5016877;28;20050;-59
2022/01/16 08:37:43;;;;;;;15.60;9.50;;;20.30;50.00;;;;;;5022580;28;20096;-60
2022/01/16 08:40:09;;;;;;;14.55;8.65;;;20.40;50.20;;;;;;5026037;28;20051;-60
2022/01/16 08:42:36;;;;;;;14.52;9.02;;;20.40;50.30;;;;;;5021041;28;20045;-61
2022/01/16 08:45:03;;;;;;;14.60;8.60;;;20.40;50.20;;;;;;5018209;28;20505;-61
2022/01/16 08:47:29;;;;;;;14.48;8.93;;;20.40;50.10;;;;;;5017629;28;20041;-59
2022/01/16 08:49:55;;;;;;;13.85;8.30;;;20.40;50.10;;;;;;5019328;28;20054;-60
2022/01/16 08:52:21;;;;;;;17.23;8.90;;;20.40;50.30;;;;;;5018769;28;20053;-60
2022/01/16 08:54:47;;;;;;;13.82;8.82;;;20.40;50.30;;;;;;5018335;28;20041;-60
2022/01/16 08:57:13;;;;;;;14.05;8.70;;;20.40;51.10;;;;;;5018579;28;20449;-60
2022/01/16 08:59:38;;;;;;;13.30;8.70;;;20.40;50.40;;;;;;5018709;28;20140;-59
2022/01/16 09:02:04;;;;;;;12.77;8.75;;;20.40;50.40;;;;;;5017992;28;20053;-60
2022/01/16 09:04:29;;;;;;;13.70;8.52;;;20.40;50.40;;;;;;5018219;28;20067;-60
2022/01/16 09:06:55;;;;;;;13.95;9.30;;;20.40;50.40;;;;;;5018920;28;20042;-60
2022/01/16 09:09:20;;;;;;;12.85;8.73;;;20.40;50.50;;;;;;5017819;28;20074;-60
2022/01/16 09:11:47;;;;;;;13.13;8.38;;;20.40;50.50;;;;;;5020185;28;20467;-60
2022/01/16 09:14:13;;;;;;;14.80;9.07;;;20.40;50.50;;;;;;5037736;28;20041;-59
2022/01/16 09:16:39;;;;;;;13.65;7.60;;;20.50;50.50;;;;;;5038574;28;20423;-60
2022/01/16 09:19:04;;;;;;;14.40;8.98;;;20.50;50.40;;;;;;5034456;28;20049;-60
2022/01/16 09:21:30;;;;;;;16.30;9.57;;;20.50;50.30;;;;;;5034393;28;20120;-61
2022/01/16 09:23:55;;;;;;;14.18;8.95;;;20.50;50.30;;;;;;5035290;28;20045;-61
2022/01/16 09:26:21;;;;;;;14.60;8.68;;;20.50;50.40;;;;;;5034894;28;20049;-61
2022/01/16 09:28:46;;;;;;;12.20;8.43;;;20.50;50.50;;;;;;5034754;28;20042;-61
2022/01/16 09:31:12;;;;;;;13.48;9.10;;;20.50;50.60;;;;;;5035130;28;20045;-60
2022/01/16 09:33:37;;;;;;;14.48;8.75;;;20.50;50.60;;;;;;5035192;28;20413;-60
2022/01/16 09:36:03;;;;;;;14.27;8.70;;;20.50;50.50;;;;;;5034190;28;20053;-60
2022/01/16 09:38:29;;;;;;;12.68;8.18;;;20.50;50.40;;;;;;5034895;28;20091;-60
2022/01/16 09:40:55;;;;;;;11.32;8.30;;;20.50;50.30;;;;;;5035165;28;20049;-60
2022/01/16 09:43:20;;;;;;;14.23;8.40;;;20.50;50.30;;;;;;5033674;28;20076;-61
2022/01/16 09:45:46;;;;;;;13.25;8.35;;;20.50;50.20;;;;;;5035160;28;19928;-60
2022/01/16 09:48:12;;;;;;;12.00;8.27;;;20.50;50.20;;;;;;5034227;28;20037;-60
2022/01/16 09:50:37;;;;;;;14.60;9.40;;;20.50;50.10;;;;;;5034265;28;20049;-60
2022/01/16 09:53:03;;;;;;;13.07;8.18;;;20.50;50.10;;;;;;5034934;28;20052;-60
2022/01/16 09:55:28;;;;;;;14.25;8.65;;;20.50;50.00;;;;;;5016840;28;20049;-60
2022/01/16 09:57:54;;;;;;;13.38;8.82;;;20.50;50.00;;;;;;5034098;28;20410;-60
2022/01/16 10:00:20;;;;;;;13.50;9.00;;;20.50;49.90;;;;;;5034197;28;20128;-60
2022/01/16 10:02:46;;;;;;;12.00;8.70;;;20.50;50.00;;;;;;5017036;28;20172;-60
2022/01/16 10:05:23;;;;;;;14.57;9.20;;;20.50;50.10;;;;;;5033807;28;20409;-60
2022/01/16 10:07:49;;;;;;;13.77;8.52;;;20.50;49.90;;;;;;5028902;28;20081;-59
2022/01/16 10:10:14;;;;;;;15.23;8.48;;;20.50;50.10;;;;;;5021969;28;20122;-60
2022/01/16 10:12:46;;;;;;;11.88;7.70;;;20.50;50.20;;;;;;5024308;28;20045;-59
2022/01/16 10:15:20;;;;;;;13.95;8.25;;;20.50;50.40;;;;;;5023812;28;20050;-60
2022/01/16 10:17:47;;;;;;;11.68;8.05;;;20.60;50.60;;;;;;5022705;28;20041;-59
2022/01/16 10:20:16;;;;;;;12.07;8.43;;;20.60;50.70;;;;;;5023488;28;20052;-60
2022/01/16 10:22:44;;;;;;;12.95;8.30;;;20.60;50.80;;;;;;5023919;28;20087;-60
2022/01/16 10:25:10;;;;;;;12.10;8.68;;;20.60;50.80;;;;;;5022792;28;20056;-60
2022/01/16 10:27:37;;;;;;;13.77;8.15;;;20.60;50.80;;;;;;5022804;28;20038;-59
2022/01/16 10:30:07;;;;;;;12.23;8.40;;;20.60;50.80;;;;;;5021144;28;20041;-59
2022/01/16 10:32:35;;;;;;;12.82;8.25;;;20.60;50.80;;;;;;5015671;28;20050;-59
2022/01/16 10:35:23;;;;;;;14.82;8.32;;;20.60;50.80;;;;;;5014107;28;20050;-60
2022/01/16 10:37:52;;;;;;;11.52;7.97;;;20.60;50.90;;;;;;5014147;28;20042;-59
2022/01/16 10:40:30;;;;;;;11.65;7.82;;;20.60;50.90;;;;;;5012877;28;20038;-60
2022/01/16 10:42:58;;;;;;;12.02;8.15;;;20.60;50.80;;;;;;5013963;28;20050;-60
2022/01/16 10:45:25;;;;;;;10.57;8.00;;;20.70;50.90;;;;;;4996201;28;20054;-61
2022/01/16 10:47:53;;;;;;;13.98;7.93;;;20.60;50.80;;;;;;5013084;28;20497;-60
2022/01/16 10:50:24;;;;;;;12.80;7.90;;;20.70;51.00;;;;;;5013410;28;20456;-60
2022/01/16 10:53:00;;;;;;;12.05;8.27;;;20.70;50.90;;;;;;5013380;28;20448;-60
2022/01/16 10:55:55;;;;;;;11.77;7.60;;;20.70;51.00;;;;;;5013503;28;20056;-60
2022/01/16 10:58:20;;;;;;;11.32;7.60;;;20.70;50.90;;;;;;5011962;28;20062;-59
2022/01/16 11:00:51;;;;;;;16.15;7.90;;;20.70;51.10;;;;;;5013241;28;20157;-60
2022/01/16 11:03:17;;;;;;;12.88;7.50;;;20.70;51.10;;;;;;5013288;28;20060;-59
2022/01/16 11:05:43;;;;;;;11.63;7.32;;;20.70;51.10;;;;;;5013685;28;20045;-60
2022/01/16 11:08:13;;;;;;;11.68;7.57;;;20.70;51.20;;;;;;5012877;28;20038;-59
2022/01/16 11:10:50;;;;;;;12.63;7.55;;;20.70;51.20;;;;;;5013566;28;20397;-60
2022/01/16 11:13:16;;;;;;;11.88;7.90;;;20.70;51.20;;;;;;5013125;28;20121;-60
2022/01/16 11:15:43;;;;;;;12.68;7.70;;;20.70;51.20;;;;;;5028016;28;20103;-60
2022/01/16 11:18:10;;;;;;;12.50;7.82;;;20.80;51.30;;;;;;5033114;28;20579;-60
2022/01/16 11:20:37;;;;;;;11.32;7.22;;;20.80;51.20;;;;;;5033051;28;20049;-60
2022/01/16 11:23:27;;;;;;;11.70;7.28;;;20.70;51.20;;;;;;5032358;28;20485;-61
2022/01/16 11:26:04;;;;;;;11.40;7.25;;;20.80;51.30;;;;;;5033226;28;20049;-60
2022/01/16 11:28:30;;;;;;;14.63;6.77;;;20.80;51.20;;;;;;5031909;28;20046;-60
2022/01/16 11:30:57;;;;;;;12.48;7.85;;;20.80;51.30;;;;;;5032808;28;20347;-60
2022/01/16 11:33:24;;;;;;;10.38;7.28;;;20.80;51.20;;;;;;5032573;28;20045;-60
2022/01/16 11:35:53;;;;;;;12.02;7.60;;;20.80;51.10;;;;;;5032203;28;20041;-60
2022/01/16 11:38:20;;;;;;;10.68;6.78;;;20.80;51.20;;;;;;5032545;28;20050;-60
2022/01/16 11:40:46;;;;;;;10.45;7.07;;;20.80;51.20;;;;;;5032627;28;20054;-60
2022/01/16 11:43:16;;;;;;;10.73;7.13;;;20.80;51.20;;;;;;5032113;28;20504;-60
2022/01/16 11:45:47;;;;;;;11.63;7.47;;;20.80;51.10;;;;;;5032834;28;20049;-60
2022/01/16 11:48:12;;;;;;;11.05;6.93;;;20.80;51.20;;;;;;5032771;28;20056;-60
2022/01/16 11:50:38;;;;;;;11.88;7.80;;;20.80;51.10;;;;;;5032757;28;20045;-59
2022/01/16 11:53:04;;;;;;;11.07;7.40;;;20.80;51.00;;;;;;5032620;28;20107;-59
2022/01/16 11:55:34;;;;;;;11.68;7.13;;;20.80;50.90;;;;;;5032425;28;20481;-60
2022/01/16 11:58:00;;;;;;;11.02;7.10;;;20.80;50.90;;;;;;5031874;28;20045;-60
2022/01/16 12:00:26;;;;;;;10.80;6.50;;;20.80;50.90;;;;;;5032483;28;20064;-59
2022/01/16 12:02:53;;;;;;;11.85;7.28;;;20.80;50.90;;;;;;4998339;28;20042;-59
2022/01/16 12:05:23;;;;;;;10.50;6.60;;;20.80;50.90;;;;;;5031794;28;20104;-60
2022/01/16 12:07:49;;;;;;;9.30;6.65;;;20.80;50.90;;;;;;5032634;28;20037;-60
2022/01/16 12:10:34;;;;;;;12.23;7.10;;;20.80;50.90;;;;;;5031665;28;20049;-60
2022/01/16 12:13:00;;;;;;;11.93;7.70;;;20.90;50.90;;;;;;5032175;28;20172;-60
2022/01/16 12:15:27;;;;;;;12.73;7.55;;;20.80;50.80;;;;;;5026165;28;20116;-60
2022/01/16 12:17:52;;;;;;;11.88;6.90;;;20.80;50.60;;;;;;5021732;28;20037;-59
2022/01/16 12:20:18;;;;;;;12.25;7.40;;;20.80;51.10;;;;;;5020536;28;20041;-60
2022/01/16 12:23:04;;;;;;;12.70;7.28;;;20.80;50.60;;;;;;5024512;28;20037;-60
2022/01/16 12:25:33;;;;;;;11.00;6.90;;;20.80;50.80;;;;;;5004651;28;20497;-60
2022/01/16 12:28:05;;;;;;;11.48;6.90;;;20.80;50.80;;;;;;5019869;28;20463;-60
2022/01/16 12:30:38;;;;;;;10.73;6.30;;;20.80;51.00;;;;;;5025194;28;20052;-60
2022/01/16 12:33:10;;;;;;;12.32;7.13;;;20.80;51.00;;;;;;5022903;28;20401;-60
2022/01/16 12:35:41;;;;;;;9.88;6.57;;;20.80;51.10;;;;;;5018901;28;20488;-60
2022/01/16 12:38:43;;;;;;;10.48;6.47;;;20.80;51.20;;;;;;5018882;28;20065;-60
2022/01/16 12:41:21;;;;;;;11.15;6.70;;;20.80;51.00;;;;;;5007598;28;20196;-61
2022/01/16 12:44:01;;;;;;;10.00;6.00;;;20.80;51.20;;;;;;5016928;28;20137;-60
2022/01/16 12:46:57;;;;;;;11.02;6.80;;;20.90;51.30;;;;;;5022801;28;20052;-61
2022/01/16 12:49:26;;;;;;;10.60;6.25;;;20.80;51.30;;;;;;5018862;28;20053;-61
2022/01/16 12:51:55;;;;;;;8.65;5.80;;;20.90;51.40;;;;;;5019762;28;20513;-60
2022/01/16 12:54:22;;;;;;;9.40;5.85;;;20.90;51.40;;;;;;5025368;28;20047;-59
2022/01/16 12:56:55;;;;;;;9.52;6.28;;;20.90;51.30;;;;;;5025750;28;20050;-60
2022/01/16 12:59:22;;;;;;;10.52;6.18;;;20.90;51.40;;;;;;5025805;28;20497;-60
2022/01/16 13:01:52;;;;;;;9.80;6.63;;;20.90;51.40;;;;;;5025935;28;20046;-60
2022/01/16 13:04:26;;;;;;;10.05;5.97;;;20.90;51.50;;;;;;5024384;28;20419;-59
2022/01/16 13:06:52;;;;;;;9.27;5.57;;;20.90;51.40;;;;;;5004641;28;20045;-60
2022/01/16 13:09:17;;;;;;;9.15;5.45;;;20.90;51.50;;;;;;5026845;28;20049;-62
2022/01/16 13:11:47;;;;;;;10.85;5.38;;;20.90;51.50;;;;;;5024882;28;20046;-61
2022/01/16 13:14:15;;;;;;;12.68;6.10;;;20.90;51.40;;;;;;5023736;28;20046;-60
2022/01/16 13:16:43;;;;;;;9.75;5.90;;;20.90;51.40;;;;;;5024997;28;20050;-60